sensor_id;sensor_type;location;lat;lon;timestamp;P1;durP1;ratioP1;P2;durP2;ratioP2
76640;SDS011;65538;50.798;6.064;2023-04-24T00:00:21;4.17;;;1.60;;
76640;SDS011;65538;50.798;6.064;2023-04-24T00:02:47;5.90;;;1.87;;
76640;SDS011;65538;50.798;6.064;2023-04-24T00:05:13;4.13;;;1.95;;
76640;SDS011;65538;50.798;6.064;2023-04-24T00:07:38;4.50;;;2.33;;
76640;SDS011;65538;50.798;6.064;2023-04-24T00:10:04;4.43;;;2.42;;
76640;SDS011;65538;50.798;6.064;2023-04-24T00:12:30;6.43;;;2.50;;
76640;SDS011;65538;50.798;6.064;2023-04-24T00:14:55;6.38;;;2.58;;
76640;SDS011;65538;50.798;6.064;2023-04-24T00:17:20;5.80;;;2.67;;
76640;SDS011;65538;50.798;6.064;2023-04-24T00:19:46;6.70;;;3.20;;
76640;SDS011;65538;50.798;6.064;2023-04-24T00:22:12;4.07;;;2.60;;
76640;SDS011;65538;50.798;6.064;2023-04-24T00:24:38;6.38;;;3.63;;
76640;SDS011;65538;50.798;6.064;2023-04-24T00:27:03;7.97;;;4.83;;
76640;SDS011;65538;50.798;6.064;2023-04-24T00:29:28;8.03;;;4.20;;
76640;SDS011;65538;50.798;6.064;2023-04-24T00:31:54;6.60;;;3.83;;
76640;SDS011;65538;50.798;6.064;2023-04-24T00:37:49;5.75;;;3.72;;
76640;SDS011;65538;50.798;6.064;2023-04-24T00:40:28;6.20;;;2.97;;
76640;SDS011;65538;50.798;6.064;2023-04-24T00:42:59;7.78;;;3.28;;
76640;SDS011;65538;50.798;6.064;2023-04-24T00:45:41;7.03;;;4.00;;
76640;SDS011;65538;50.798;6.064;2023-04-24T00:54:30;7.50;;;3.97;;
76640;SDS011;65538;50.798;6.064;2023-04-24T00:56:58;8.93;;;4.53;;
76640;SDS011;65538;50.798;6.064;2023-04-24T01:00:02;11.05;;;5.03;;
76640;SDS011;65538;50.798;6.064;2023-04-24T01:02:43;11.25;;;6.15;;
76640;SDS011;65538;50.798;6.064;2023-04-24T01:05:21;11.70;;;4.80;;
76640;SDS011;65538;50.798;6.064;2023-04-24T01:07:58;14.38;;;5.75;;
76640;SDS011;65538;50.798;6.064;2023-04-24T01:11:01;12.02;;;5.03;;
76640;SDS011;65538;50.798;6.064;2023-04-24T01:13:49;10.05;;;4.88;;
76640;SDS011;65538;50.798;6.064;2023-04-24T01:16:47;13.13;;;5.80;;
76640;SDS011;65538;50.798;6.064;2023-04-24T01:22:58;11.43;;;6.13;;
76640;SDS011;65538;50.798;6.064;2023-04-24T01:25:43;11.48;;;5.97;;
76640;SDS011;65538;50.798;6.064;2023-04-24T01:28:20;14.32;;;6.07;;
76640;SDS011;65538;50.798;6.064;2023-04-24T01:31:17;11.40;;;6.10;;
76640;SDS011;65538;50.798;6.064;2023-04-24T01:34:17;12.45;;;6.97;;
76640;SDS011;65538;50.798;6.064;2023-04-24T01:36:49;10.50;;;5.13;;
76640;SDS011;65538;50.798;6.064;2023-04-24T01:39:18;11.88;;;5.40;;
76640;SDS011;65538;50.798;6.064;2023-04-24T01:42:06;10.38;;;6.03;;
76640;SDS011;65538;50.798;6.064;2023-04-24T01:44:39;11.00;;;6.25;;
76640;SDS011;65538;50.798;6.064;2023-04-24T01:47:08;10.88;;;4.68;;
76640;SDS011;65538;50.798;6.064;2023-04-24T01:49:40;14.90;;;6.22;;
76640;SDS011;65538;50.798;6.064;2023-04-24T01:52:23;10.60;;;4.35;;
76640;SDS011;65538;50.798;6.064;2023-04-24T01:57:53;10.43;;;4.28;;
76640;SDS011;65538;50.798;6.064;2023-04-24T02:00:39;10.48;;;6.20;;
76640;SDS011;65538;50.798;6.064;2023-04-24T02:09:59;10.00;;;5.85;;
76640;SDS011;65538;50.798;6.064;2023-04-24T02:15:30;12.68;;;6.47;;
76640;SDS011;65538;50.798;6.064;2023-04-24T02:20:52;13.02;;;6.47;;
76640;SDS011;65538;50.798;6.064;2023-04-24T02:23:44;14.05;;;5.25;;
76640;SDS011;65538;50.798;6.064;2023-04-24T02:30:00;17.48;;;5.63;;
76640;SDS011;65538;50.798;6.064;2023-04-24T02:35:35;15.82;;;8.35;;
76640;SDS011;65538;50.798;6.064;2023-04-24T02:56:21;13.98;;;6.40;;
76640;SDS011;65538;50.798;6.064;2023-04-24T02:59:24;12.90;;;7.75;;
76640;SDS011;65538;50.798;6.064;2023-04-24T03:05:01;16.45;;;6.85;;
76640;SDS011;65538;50.798;6.064;2023-04-24T03:07:38;13.07;;;5.75;;
76640;SDS011;65538;50.798;6.064;2023-04-24T03:10:12;15.27;;;7.65;;
76640;SDS011;65538;50.798;6.064;2023-04-24T03:12:44;12.63;;;6.55;;
76640;SDS011;65538;50.798;6.064;2023-04-24T03:21:36;14.10;;;6.28;;
76640;SDS011;65538;50.798;6.064;2023-04-24T03:27:54;14.27;;;8.13;;
76640;SDS011;65538;50.798;6.064;2023-04-24T03:33:50;13.48;;;7.22;;
76640;SDS011;65538;50.798;6.064;2023-04-24T03:36:37;12.00;;;6.60;;
76640;SDS011;65538;50.798;6.064;2023-04-24T03:39:22;13.60;;;6.57;;
76640;SDS011;65538;50.798;6.064;2023-04-24T03:47:54;17.00;;;7.88;;
76640;SDS011;65538;50.798;6.064;2023-04-24T03:59:49;14.50;;;7.60;;
76640;SDS011;65538;50.798;6.064;2023-04-24T04:02:33;13.43;;;6.40;;
76640;SDS011;65538;50.798;6.064;2023-04-24T04:05:27;13.55;;;6.95;;
76640;SDS011;65538;50.798;6.064;2023-04-24T04:08:14;13.45;;;8.40;;
76640;SDS011;65538;50.798;6.064;2023-04-24T04:14:16;15.77;;;5.95;;
76640;SDS011;65538;50.798;6.064;2023-04-24T04:20:03;13.88;;;6.72;;
76640;SDS011;65538;50.798;6.064;2023-04-24T04:22:42;14.05;;;7.63;;
76640;SDS011;65538;50.798;6.064;2023-04-24T04:25:16;13.13;;;6.45;;
76640;SDS011;65538;50.798;6.064;2023-04-24T04:31:12;14.07;;;8.27;;
76640;SDS011;65538;50.798;6.064;2023-04-24T04:33:48;16.40;;;9.95;;
76640;SDS011;65538;50.798;6.064;2023-04-24T04:37:02;16.63;;;9.20;;
76640;SDS011;65538;50.798;6.064;2023-04-24T04:42:20;14.80;;;7.13;;
76640;SDS011;65538;50.798;6.064;2023-04-24T04:44:57;17.02;;;7.72;;
76640;SDS011;65538;50.798;6.064;2023-04-24T04:50:14;16.92;;;8.90;;
76640;SDS011;65538;50.798;6.064;2023-04-24T04:52:42;19.05;;;7.93;;
76640;SDS011;65538;50.798;6.064;2023-04-24T04:55:12;20.23;;;11.18;;
76640;SDS011;65538;50.798;6.064;2023-04-24T05:01:04;14.25;;;7.65;;
76640;SDS011;65538;50.798;6.064;2023-04-24T06:21:59;12.35;;;6.78;;
76640;SDS011;65538;50.798;6.064;2023-04-24T06:25:06;8.68;;;5.40;;
76640;SDS011;65538;50.798;6.064;2023-04-24T06:27:54;10.20;;;4.93;;
76640;SDS011;65538;50.798;6.064;2023-04-24T06:30:20;14.18;;;5.60;;
76640;SDS011;65538;50.798;6.064;2023-04-24T06:32:47;7.70;;;4.57;;
76640;SDS011;65538;50.798;6.064;2023-04-24T06:35:12;9.77;;;5.13;;
76640;SDS011;65538;50.798;6.064;2023-04-24T06:37:39;7.05;;;4.32;;
76640;SDS011;65538;50.798;6.064;2023-04-24T06:40:05;9.68;;;4.97;;
76640;SDS011;65538;50.798;6.064;2023-04-24T06:42:31;8.82;;;3.97;;
76640;SDS011;65538;50.798;6.064;2023-04-24T06:44:56;9.98;;;4.97;;
76640;SDS011;65538;50.798;6.064;2023-04-24T06:47:21;7.37;;;4.73;;
76640;SDS011;65538;50.798;6.064;2023-04-24T06:49:47;8.15;;;4.65;;
76640;SDS011;65538;50.798;6.064;2023-04-24T06:52:13;7.35;;;4.75;;
76640;SDS011;65538;50.798;6.064;2023-04-24T06:54:38;11.55;;;5.95;;
76640;SDS011;65538;50.798;6.064;2023-04-24T06:57:03;10.50;;;5.30;;
76640;SDS011;65538;50.798;6.064;2023-04-24T06:59:29;11.83;;;5.00;;
76640;SDS011;65538;50.798;6.064;2023-04-24T07:01:55;10.95;;;5.82;;
76640;SDS011;65538;50.798;6.064;2023-04-24T07:04:20;13.45;;;6.82;;
76640;SDS011;65538;50.798;6.064;2023-04-24T07:06:45;11.07;;;7.00;;
76640;SDS011;65538;50.798;6.064;2023-04-24T07:09:14;9.35;;;4.80;;
76640;SDS011;65538;50.798;6.064;2023-04-24T07:11:40;12.75;;;6.50;;
76640;SDS011;65538;50.798;6.064;2023-04-24T07:14:06;13.70;;;8.87;;
76640;SDS011;65538;50.798;6.064;2023-04-24T07:16:31;11.40;;;6.15;;
76640;SDS011;65538;50.798;6.064;2023-04-24T07:18:56;10.80;;;5.87;;
76640;SDS011;65538;50.798;6.064;2023-04-24T07:21:21;8.57;;;4.30;;
76640;SDS011;65538;50.798;6.064;2023-04-24T07:23:47;15.37;;;6.43;;
76640;SDS011;65538;50.798;6.064;2023-04-24T07:26:12;12.37;;;7.23;;
76640;SDS011;65538;50.798;6.064;2023-04-24T07:28:39;10.50;;;6.22;;
76640;SDS011;65538;50.798;6.064;2023-04-24T07:31:04;10.97;;;5.27;;
76640;SDS011;65538;50.798;6.064;2023-04-24T07:33:29;9.90;;;5.63;;
76640;SDS011;65538;50.798;6.064;2023-04-24T07:35:55;10.18;;;4.80;;
76640;SDS011;65538;50.798;6.064;2023-04-24T07:38:21;8.63;;;4.90;;
76640;SDS011;65538;50.798;6.064;2023-04-24T07:40:47;11.25;;;6.53;;
76640;SDS011;65538;50.798;6.064;2023-04-24T07:43:12;13.18;;;7.95;;
76640;SDS011;65538;50.798;6.064;2023-04-24T07:45:37;12.13;;;7.50;;
76640;SDS011;65538;50.798;6.064;2023-04-24T07:48:04;12.38;;;7.28;;
76640;SDS011;65538;50.798;6.064;2023-04-24T07:50:29;14.27;;;7.27;;
76640;SDS011;65538;50.798;6.064;2023-04-24T07:52:55;13.40;;;7.87;;
76640;SDS011;65538;50.798;6.064;2023-04-24T07:55:20;10.07;;;5.07;;
76640;SDS011;65538;50.798;6.064;2023-04-24T07:57:45;18.63;;;9.87;;
76640;SDS011;65538;50.798;6.064;2023-04-24T08:00:10;13.97;;;8.50;;
76640;SDS011;65538;50.798;6.064;2023-04-24T08:02:36;15.80;;;9.32;;
76640;SDS011;65538;50.798;6.064;2023-04-24T08:05:01;15.77;;;7.50;;
76640;SDS011;65538;50.798;6.064;2023-04-24T08:07:28;16.35;;;9.48;;
76640;SDS011;65538;50.798;6.064;2023-04-24T08:09:53;18.73;;;8.97;;
76640;SDS011;65538;50.798;6.064;2023-04-24T08:12:18;16.80;;;6.63;;
76640;SDS011;65538;50.798;6.064;2023-04-24T08:14:44;13.27;;;7.50;;
76640;SDS011;65538;50.798;6.064;2023-04-24T08:17:09;17.37;;;7.87;;
76640;SDS011;65538;50.798;6.064;2023-04-24T08:19:34;17.17;;;8.60;;
76640;SDS011;65538;50.798;6.064;2023-04-24T08:21:59;18.63;;;7.50;;
76640;SDS011;65538;50.798;6.064;2023-04-24T08:24:24;11.83;;;7.03;;
76640;SDS011;65538;50.798;6.064;2023-04-24T08:26:50;10.03;;;5.43;;
76640;SDS011;65538;50.798;6.064;2023-04-24T08:29:16;14.85;;;7.13;;
76640;SDS011;65538;50.798;6.064;2023-04-24T08:31:41;14.50;;;7.60;;
76640;SDS011;65538;50.798;6.064;2023-04-24T08:34:06;13.27;;;6.70;;
76640;SDS011;65538;50.798;6.064;2023-04-24T08:36:32;12.17;;;5.70;;
76640;SDS011;65538;50.798;6.064;2023-04-24T08:38:57;10.77;;;6.07;;
76640;SDS011;65538;50.798;6.064;2023-04-24T08:41:22;14.93;;;7.47;;
76640;SDS011;65538;50.798;6.064;2023-04-24T08:43:51;13.38;;;7.18;;
76640;SDS011;65538;50.798;6.064;2023-04-24T08:46:16;12.50;;;7.20;;
76640;SDS011;65538;50.798;6.064;2023-04-24T08:48:41;16.27;;;9.02;;
76640;SDS011;65538;50.798;6.064;2023-04-24T08:51:07;14.88;;;8.27;;
76640;SDS011;65538;50.798;6.064;2023-04-24T08:53:33;17.20;;;8.40;;
76640;SDS011;65538;50.798;6.064;2023-04-24T08:55:58;16.67;;;9.10;;
76640;SDS011;65538;50.798;6.064;2023-04-24T08:58:25;18.35;;;8.15;;
76640;SDS011;65538;50.798;6.064;2023-04-24T09:00:50;20.38;;;10.85;;
76640;SDS011;65538;50.798;6.064;2023-04-24T09:03:16;18.70;;;9.63;;
76640;SDS011;65538;50.798;6.064;2023-04-24T09:05:44;22.27;;;12.88;;
76640;SDS011;65538;50.798;6.064;2023-04-24T09:10:36;21.20;;;10.60;;
76640;SDS011;65538;50.798;6.064;2023-04-24T09:13:01;21.13;;;9.60;;
76640;SDS011;65538;50.798;6.064;2023-04-24T09:15:27;17.73;;;9.82;;
76640;SDS011;65538;50.798;6.064;2023-04-24T09:17:52;22.10;;;9.48;;
76640;SDS011;65538;50.798;6.064;2023-04-24T09:20:17;20.43;;;9.57;;
76640;SDS011;65538;50.798;6.064;2023-04-24T09:22:43;19.30;;;8.47;;
76640;SDS011;65538;50.798;6.064;2023-04-24T09:25:10;17.02;;;9.32;;
76640;SDS011;65538;50.798;6.064;2023-04-24T09:27:41;17.58;;;8.40;;
76640;SDS011;65538;50.798;6.064;2023-04-24T09:30:06;20.73;;;10.07;;
76640;SDS011;65538;50.798;6.064;2023-04-24T09:32:32;14.93;;;8.00;;
76640;SDS011;65538;50.798;6.064;2023-04-24T09:35:11;22.13;;;9.87;;
76640;SDS011;65538;50.798;6.064;2023-04-24T09:37:39;22.42;;;11.68;;
76640;SDS011;65538;50.798;6.064;2023-04-24T09:42:31;16.52;;;9.02;;
76640;SDS011;65538;50.798;6.064;2023-04-24T09:44:57;24.13;;;11.00;;
76640;SDS011;65538;50.798;6.064;2023-04-24T09:47:22;20.60;;;10.23;;
76640;SDS011;65538;50.798;6.064;2023-04-24T09:49:47;17.93;;;7.30;;
76640;SDS011;65538;50.798;6.064;2023-04-24T09:52:12;13.60;;;6.83;;
76640;SDS011;65538;50.798;6.064;2023-04-24T09:54:38;18.37;;;9.27;;
76640;SDS011;65538;50.798;6.064;2023-04-24T09:57:03;17.52;;;8.65;;
76640;SDS011;65538;50.798;6.064;2023-04-24T09:59:29;18.20;;;9.43;;
76640;SDS011;65538;50.798;6.064;2023-04-24T10:01:54;11.68;;;5.85;;
76640;SDS011;65538;50.798;6.064;2023-04-24T10:04:20;11.03;;;6.47;;
76640;SDS011;65538;50.798;6.064;2023-04-24T10:06:46;15.98;;;6.40;;
76640;SDS011;65538;50.798;6.064;2023-04-24T10:09:12;13.98;;;5.80;;
76640;SDS011;65538;50.798;6.064;2023-04-24T10:11:41;11.38;;;5.72;;
76640;SDS011;65538;50.798;6.064;2023-04-24T10:14:06;9.77;;;4.65;;
76640;SDS011;65538;50.798;6.064;2023-04-24T10:16:32;13.50;;;5.77;;
76640;SDS011;65538;50.798;6.064;2023-04-24T10:18:58;10.20;;;4.90;;
76640;SDS011;65538;50.798;6.064;2023-04-24T10:21:24;13.40;;;6.25;;
76640;SDS011;65538;50.798;6.064;2023-04-24T10:23:51;12.55;;;4.50;;
76640;SDS011;65538;50.798;6.064;2023-04-24T10:26:16;11.23;;;4.83;;
76640;SDS011;65538;50.798;6.064;2023-04-24T10:28:46;11.70;;;5.40;;
76640;SDS011;65538;50.798;6.064;2023-04-24T10:31:12;12.38;;;6.03;;
76640;SDS011;65538;50.798;6.064;2023-04-24T10:33:38;14.05;;;6.28;;
76640;SDS011;65538;50.798;6.064;2023-04-24T10:36:03;18.08;;;6.30;;
76640;SDS011;65538;50.798;6.064;2023-04-24T10:38:29;18.17;;;7.00;;
76640;SDS011;65538;50.798;6.064;2023-04-24T10:41:10;16.35;;;6.47;;
76640;SDS011;65538;50.798;6.064;2023-04-24T10:43:41;13.73;;;7.68;;
76640;SDS011;65538;50.798;6.064;2023-04-24T10:46:06;18.35;;;8.40;;
76640;SDS011;65538;50.798;6.064;2023-04-24T10:48:33;16.70;;;5.88;;
76640;SDS011;65538;50.798;6.064;2023-04-24T10:50:59;17.75;;;7.60;;
76640;SDS011;65538;50.798;6.064;2023-04-24T10:53:27;14.77;;;7.03;;
76640;SDS011;65538;50.798;6.064;2023-04-24T10:56:00;19.73;;;5.93;;
76640;SDS011;65538;50.798;6.064;2023-04-24T10:58:40;12.02;;;6.40;;
76640;SDS011;65538;50.798;6.064;2023-04-24T11:01:08;22.45;;;7.85;;
76640;SDS011;65538;50.798;6.064;2023-04-24T11:03:34;16.80;;;9.57;;
76640;SDS011;65538;50.798;6.064;2023-04-24T11:06:06;19.58;;;8.75;;
76640;SDS011;65538;50.798;6.064;2023-04-24T11:08:52;15.65;;;8.93;;
76640;SDS011;65538;50.798;6.064;2023-04-24T11:11:18;18.35;;;7.88;;
76640;SDS011;65538;50.798;6.064;2023-04-24T11:18:52;13.55;;;7.20;;
76640;SDS011;65538;50.798;6.064;2023-04-24T11:21:22;13.32;;;7.35;;
76640;SDS011;65538;50.798;6.064;2023-04-24T11:23:47;15.30;;;6.55;;
76640;SDS011;65538;50.798;6.064;2023-04-24T11:26:17;15.20;;;7.97;;
76640;SDS011;65538;50.798;6.064;2023-04-24T11:28:46;18.05;;;6.88;;
76640;SDS011;65538;50.798;6.064;2023-04-24T11:33:55;15.35;;;6.25;;
76640;SDS011;65538;50.798;6.064;2023-04-24T11:36:21;15.10;;;5.80;;
76640;SDS011;65538;50.798;6.064;2023-04-24T11:38:46;11.83;;;5.17;;
76640;SDS011;65538;50.798;6.064;2023-04-24T11:41:11;13.90;;;5.18;;
76640;SDS011;65538;50.798;6.064;2023-04-24T11:43:38;17.73;;;5.43;;
76640;SDS011;65538;50.798;6.064;2023-04-24T11:46:04;11.02;;;5.15;;
76640;SDS011;65538;50.798;6.064;2023-04-24T11:48:29;11.43;;;4.43;;
76640;SDS011;65538;50.798;6.064;2023-04-24T11:50:54;11.02;;;4.15;;
76640;SDS011;65538;50.798;6.064;2023-04-24T11:53:20;14.73;;;5.40;;
76640;SDS011;65538;50.798;6.064;2023-04-24T11:55:46;14.50;;;6.18;;
76640;SDS011;65538;50.798;6.064;2023-04-24T11:58:11;12.00;;;4.80;;
76640;SDS011;65538;50.798;6.064;2023-04-24T12:00:36;13.37;;;5.03;;
76640;SDS011;65538;50.798;6.064;2023-04-24T12:03:04;15.32;;;5.05;;
76640;SDS011;65538;50.798;6.064;2023-04-24T12:05:30;10.68;;;4.78;;
76640;SDS011;65538;50.798;6.064;2023-04-24T12:07:59;7.30;;;3.65;;
76640;SDS011;65538;50.798;6.064;2023-04-24T12:10:25;12.97;;;5.67;;
76640;SDS011;65538;50.798;6.064;2023-04-24T12:12:51;8.00;;;3.40;;
76640;SDS011;65538;50.798;6.064;2023-04-24T12:15:17;13.60;;;5.28;;
76640;SDS011;65538;50.798;6.064;2023-04-24T12:17:42;9.68;;;5.18;;
76640;SDS011;65538;50.798;6.064;2023-04-24T12:20:10;9.43;;;4.13;;
76640;SDS011;65538;50.798;6.064;2023-04-24T12:22:52;12.68;;;4.60;;
76640;SDS011;65538;50.798;6.064;2023-04-24T12:25:22;10.05;;;4.45;;
76640;SDS011;65538;50.798;6.064;2023-04-24T12:27:52;9.48;;;4.03;;
76640;SDS011;65538;50.798;6.064;2023-04-24T12:32:43;12.73;;;4.85;;
76640;SDS011;65538;50.798;6.064;2023-04-24T12:35:09;9.07;;;4.95;;
76640;SDS011;65538;50.798;6.064;2023-04-24T12:37:35;12.13;;;5.55;;
76640;SDS011;65538;50.798;6.064;2023-04-24T12:42:31;9.82;;;4.38;;
76640;SDS011;65538;50.798;6.064;2023-04-24T12:45:00;14.15;;;4.82;;
76640;SDS011;65538;50.798;6.064;2023-04-24T12:47:26;11.35;;;5.38;;
76640;SDS011;65538;50.798;6.064;2023-04-24T12:49:52;11.80;;;5.65;;
76640;SDS011;65538;50.798;6.064;2023-04-24T12:52:17;11.50;;;5.03;;
76640;SDS011;65538;50.798;6.064;2023-04-24T12:54:42;12.32;;;5.03;;
76640;SDS011;65538;50.798;6.064;2023-04-24T12:57:08;11.97;;;5.00;;
76640;SDS011;65538;50.798;6.064;2023-04-24T12:59:33;12.98;;;5.05;;
76640;SDS011;65538;50.798;6.064;2023-04-24T13:01:58;11.30;;;4.97;;
76640;SDS011;65538;50.798;6.064;2023-04-24T13:04:23;10.13;;;4.43;;
76640;SDS011;65538;50.798;6.064;2023-04-24T13:06:49;13.73;;;4.97;;
76640;SDS011;65538;50.798;6.064;2023-04-24T13:09:15;13.68;;;5.00;;
76640;SDS011;65538;50.798;6.064;2023-04-24T13:11:40;11.37;;;5.60;;
76640;SDS011;65538;50.798;6.064;2023-04-24T13:14:05;10.50;;;5.00;;
76640;SDS011;65538;50.798;6.064;2023-04-24T13:16:31;10.53;;;4.80;;
76640;SDS011;65538;50.798;6.064;2023-04-24T13:18:56;9.07;;;5.40;;
76640;SDS011;65538;50.798;6.064;2023-04-24T13:21:21;11.37;;;5.37;;
76640;SDS011;65538;50.798;6.064;2023-04-24T13:23:46;9.37;;;5.07;;
76640;SDS011;65538;50.798;6.064;2023-04-24T13:26:12;11.33;;;5.93;;
76640;SDS011;65538;50.798;6.064;2023-04-24T13:28:37;10.90;;;5.07;;
76640;SDS011;65538;50.798;6.064;2023-04-24T13:31:03;7.78;;;3.75;;
76640;SDS011;65538;50.798;6.064;2023-04-24T13:33:28;7.90;;;3.47;;
76640;SDS011;65538;50.798;6.064;2023-04-24T13:35:53;6.83;;;3.80;;
76640;SDS011;65538;50.798;6.064;2023-04-24T13:38:18;10.23;;;4.00;;
76640;SDS011;65538;50.798;6.064;2023-04-24T13:40:46;11.60;;;5.20;;
76640;SDS011;65538;50.798;6.064;2023-04-24T13:43:11;7.53;;;3.33;;
76640;SDS011;65538;50.798;6.064;2023-04-24T13:45:36;8.93;;;3.93;;
76640;SDS011;65538;50.798;6.064;2023-04-24T13:48:02;12.15;;;4.47;;
76640;SDS011;65538;50.798;6.064;2023-04-24T13:50:28;8.10;;;3.83;;
76640;SDS011;65538;50.798;6.064;2023-04-24T13:52:53;9.80;;;5.00;;
76640;SDS011;65538;50.798;6.064;2023-04-24T13:55:19;11.52;;;4.30;;
76640;SDS011;65538;50.798;6.064;2023-04-24T13:57:44;13.63;;;5.17;;
76640;SDS011;65538;50.798;6.064;2023-04-24T14:00:09;8.27;;;4.57;;
76640;SDS011;65538;50.798;6.064;2023-04-24T14:02:35;10.07;;;4.60;;
76640;SDS011;65538;50.798;6.064;2023-04-24T14:05:00;8.70;;;4.47;;
76640;SDS011;65538;50.798;6.064;2023-04-24T14:07:26;11.20;;;5.00;;
76640;SDS011;65538;50.798;6.064;2023-04-24T14:09:51;11.27;;;5.30;;
76640;SDS011;65538;50.798;6.064;2023-04-24T14:12:16;7.90;;;3.67;;
76640;SDS011;65538;50.798;6.064;2023-04-24T14:14:44;11.00;;;3.88;;
76640;SDS011;65538;50.798;6.064;2023-04-24T14:17:09;10.63;;;5.33;;
76640;SDS011;65538;50.798;6.064;2023-04-24T14:19:35;9.30;;;3.90;;
76640;SDS011;65538;50.798;6.064;2023-04-24T14:22:00;8.93;;;4.60;;
76640;SDS011;65538;50.798;6.064;2023-04-24T14:24:25;6.33;;;4.17;;
76640;SDS011;65538;50.798;6.064;2023-04-24T14:26:51;7.28;;;3.45;;
76640;SDS011;65538;50.798;6.064;2023-04-24T14:29:16;5.60;;;2.47;;
76640;SDS011;65538;50.798;6.064;2023-04-24T14:31:42;8.10;;;3.42;;
76640;SDS011;65538;50.798;6.064;2023-04-24T14:34:07;9.98;;;4.07;;
76640;SDS011;65538;50.798;6.064;2023-04-24T14:36:32;10.67;;;4.73;;
76640;SDS011;65538;50.798;6.064;2023-04-24T14:38:57;10.17;;;4.37;;
76640;SDS011;65538;50.798;6.064;2023-04-24T14:41:23;8.40;;;3.90;;
76640;SDS011;65538;50.798;6.064;2023-04-24T14:43:48;7.83;;;3.90;;
76640;SDS011;65538;50.798;6.064;2023-04-24T14:46:13;9.07;;;4.50;;
76640;SDS011;65538;50.798;6.064;2023-04-24T14:48:38;11.37;;;4.00;;
76640;SDS011;65538;50.798;6.064;2023-04-24T14:51:03;7.20;;;4.23;;
76640;SDS011;65538;50.798;6.064;2023-04-24T14:53:29;8.33;;;3.63;;
76640;SDS011;65538;50.798;6.064;2023-04-24T14:55:54;8.70;;;3.92;;
76640;SDS011;65538;50.798;6.064;2023-04-24T14:58:19;6.67;;;4.40;;
76640;SDS011;65538;50.798;6.064;2023-04-24T15:00:45;11.47;;;4.03;;
76640;SDS011;65538;50.798;6.064;2023-04-24T15:03:10;8.73;;;4.23;;
76640;SDS011;65538;50.798;6.064;2023-04-24T15:05:35;7.63;;;4.10;;
76640;SDS011;65538;50.798;6.064;2023-04-24T15:08:00;10.10;;;4.30;;
76640;SDS011;65538;50.798;6.064;2023-04-24T15:10:25;9.37;;;4.50;;
76640;SDS011;65538;50.798;6.064;2023-04-24T15:12:51;6.33;;;3.73;;
76640;SDS011;65538;50.798;6.064;2023-04-24T15:15:16;7.90;;;4.07;;
76640;SDS011;65538;50.798;6.064;2023-04-24T15:17:41;9.63;;;4.27;;
76640;SDS011;65538;50.798;6.064;2023-04-24T15:20:07;11.33;;;3.60;;
76640;SDS011;65538;50.798;6.064;2023-04-24T15:22:32;10.27;;;5.03;;
76640;SDS011;65538;50.798;6.064;2023-04-24T15:24:57;6.17;;;3.37;;
76640;SDS011;65538;50.798;6.064;2023-04-24T15:27:23;7.93;;;4.50;;
76640;SDS011;65538;50.798;6.064;2023-04-24T15:29:48;8.33;;;3.83;;
76640;SDS011;65538;50.798;6.064;2023-04-24T15:32:13;9.00;;;4.17;;
76640;SDS011;65538;50.798;6.064;2023-04-24T15:34:38;9.87;;;3.30;;
76640;SDS011;65538;50.798;6.064;2023-04-24T15:37:03;7.93;;;4.30;;
76640;SDS011;65538;50.798;6.064;2023-04-24T15:39:29;9.07;;;3.50;;
76640;SDS011;65538;50.798;6.064;2023-04-24T15:41:55;7.68;;;3.83;;
76640;SDS011;65538;50.798;6.064;2023-04-24T15:44:20;12.77;;;4.73;;
76640;SDS011;65538;50.798;6.064;2023-04-24T15:46:46;6.93;;;3.83;;
76640;SDS011;65538;50.798;6.064;2023-04-24T15:49:11;7.43;;;3.53;;
76640;SDS011;65538;50.798;6.064;2023-04-24T15:51:36;8.67;;;4.13;;
76640;SDS011;65538;50.798;6.064;2023-04-24T15:54:02;7.25;;;3.53;;
76640;SDS011;65538;50.798;6.064;2023-04-24T15:56:27;9.63;;;4.20;;
76640;SDS011;65538;50.798;6.064;2023-04-24T15:58:52;9.10;;;3.87;;
76640;SDS011;65538;50.798;6.064;2023-04-24T16:01:17;10.27;;;4.20;;
76640;SDS011;65538;50.798;6.064;2023-04-24T16:03:43;8.77;;;4.27;;
76640;SDS011;65538;50.798;6.064;2023-04-24T16:06:08;7.85;;;3.53;;
76640;SDS011;65538;50.798;6.064;2023-04-24T16:08:34;9.73;;;4.30;;
76640;SDS011;65538;50.798;6.064;2023-04-24T16:10:59;8.02;;;4.00;;
76640;SDS011;65538;50.798;6.064;2023-04-24T16:13:24;8.93;;;3.90;;
76640;SDS011;65538;50.798;6.064;2023-04-24T16:15:50;11.47;;;4.53;;
76640;SDS011;65538;50.798;6.064;2023-04-24T16:18:15;10.48;;;4.15;;
76640;SDS011;65538;50.798;6.064;2023-04-24T16:20:41;8.20;;;4.05;;
76640;SDS011;65538;50.798;6.064;2023-04-24T16:23:06;9.43;;;4.10;;
76640;SDS011;65538;50.798;6.064;2023-04-24T16:25:32;9.20;;;3.70;;
76640;SDS011;65538;50.798;6.064;2023-04-24T16:27:57;8.10;;;3.90;;
76640;SDS011;65538;50.798;6.064;2023-04-24T16:30:22;12.80;;;4.77;;
76640;SDS011;65538;50.798;6.064;2023-04-24T16:32:47;8.47;;;4.13;;
76640;SDS011;65538;50.798;6.064;2023-04-24T16:35:12;9.47;;;4.73;;
76640;SDS011;65538;50.798;6.064;2023-04-24T16:37:38;8.73;;;4.30;;
76640;SDS011;65538;50.798;6.064;2023-04-24T16:40:03;8.57;;;4.03;;
76640;SDS011;65538;50.798;6.064;2023-04-24T16:42:34;7.40;;;4.43;;
76640;SDS011;65538;50.798;6.064;2023-04-24T16:44:59;13.27;;;4.60;;
76640;SDS011;65538;50.798;6.064;2023-04-24T16:47:24;6.37;;;3.50;;
76640;SDS011;65538;50.798;6.064;2023-04-24T16:49:50;7.23;;;3.83;;
76640;SDS011;65538;50.798;6.064;2023-04-24T16:52:15;6.45;;;3.53;;
76640;SDS011;65538;50.798;6.064;2023-04-24T16:54:40;9.00;;;3.87;;
76640;SDS011;65538;50.798;6.064;2023-04-24T16:57:06;8.33;;;4.47;;
76640;SDS011;65538;50.798;6.064;2023-04-24T16:59:31;9.15;;;4.82;;
76640;SDS011;65538;50.798;6.064;2023-04-24T17:01:58;9.40;;;4.18;;
76640;SDS011;65538;50.798;6.064;2023-04-24T17:04:23;8.38;;;4.45;;
76640;SDS011;65538;50.798;6.064;2023-04-24T17:06:48;8.53;;;4.43;;
76640;SDS011;65538;50.798;6.064;2023-04-24T17:09:13;9.60;;;4.00;;
76640;SDS011;65538;50.798;6.064;2023-04-24T17:11:39;8.40;;;4.32;;
76640;SDS011;65538;50.798;6.064;2023-04-24T17:14:05;9.45;;;3.85;;
76640;SDS011;65538;50.798;6.064;2023-04-24T17:16:30;7.77;;;4.37;;
76640;SDS011;65538;50.798;6.064;2023-04-24T17:18:55;6.22;;;3.58;;
76640;SDS011;65538;50.798;6.064;2023-04-24T17:21:21;8.10;;;3.77;;
76640;SDS011;65538;50.798;6.064;2023-04-24T17:23:46;10.37;;;4.37;;
76640;SDS011;65538;50.798;6.064;2023-04-24T17:26:11;8.57;;;4.20;;
76640;SDS011;65538;50.798;6.064;2023-04-24T17:28:36;8.13;;;4.10;;
76640;SDS011;65538;50.798;6.064;2023-04-24T17:31:01;9.13;;;4.40;;
76640;SDS011;65538;50.798;6.064;2023-04-24T17:33:27;8.93;;;4.20;;
76640;SDS011;65538;50.798;6.064;2023-04-24T17:36:02;8.20;;;3.60;;
76640;SDS011;65538;50.798;6.064;2023-04-24T17:38:31;10.65;;;4.03;;
76640;SDS011;65538;50.798;6.064;2023-04-24T17:40:58;7.57;;;3.50;;
76640;SDS011;65538;50.798;6.064;2023-04-24T17:43:24;9.25;;;3.42;;
76640;SDS011;65538;50.798;6.064;2023-04-24T17:45:50;9.88;;;3.80;;
76640;SDS011;65538;50.798;6.064;2023-04-24T17:48:16;8.15;;;3.80;;
76640;SDS011;65538;50.798;6.064;2023-04-24T17:50:42;7.18;;;3.65;;
76640;SDS011;65538;50.798;6.064;2023-04-24T17:53:07;7.80;;;3.90;;
76640;SDS011;65538;50.798;6.064;2023-04-24T17:55:33;7.03;;;3.40;;
76640;SDS011;65538;50.798;6.064;2023-04-24T17:57:59;5.70;;;3.33;;
76640;SDS011;65538;50.798;6.064;2023-04-24T18:00:25;8.85;;;3.80;;
76640;SDS011;65538;50.798;6.064;2023-04-24T18:02:50;10.70;;;3.93;;
76640;SDS011;65538;50.798;6.064;2023-04-24T18:05:18;7.45;;;3.40;;